createdAt,value
2017-10-14T00:00:02.657Z,2.60
2017-10-14T00:02:30.163Z,2.40
2017-10-14T00:04:57.690Z,2.40
2017-10-14T00:07:25.307Z,2.30
2017-10-14T00:09:52.874Z,2.43
2017-10-14T00:12:20.371Z,2.60
2017-10-14T00:14:48.092Z,2.30
2017-10-14T00:17:15.591Z,2.80
2017-10-14T00:19:43.083Z,2.30
2017-10-14T00:22:10.595Z,1.93
2017-10-14T00:24:38.118Z,2.30
2017-10-14T00:27:05.615Z,1.90
2017-10-14T00:29:33.210Z,2.20
2017-10-14T00:32:00.703Z,2.20
2017-10-14T00:34:28.200Z,1.90
2017-10-14T00:36:56.479Z,2.13
2017-10-14T00:39:24.759Z,2.70
2017-10-14T00:41:52.343Z,2.20
2017-10-14T00:44:20.000Z,1.90
2017-10-14T00:46:47.492Z,2.33
2017-10-14T00:49:14.991Z,2.13
2017-10-14T00:51:42.502Z,2.20
2017-10-14T00:54:11.510Z,2.40
2017-10-14T00:56:39.771Z,2.10
2017-10-14T00:59:07.266Z,2.27
2017-10-14T01:01:34.835Z,1.93
2017-10-14T01:04:02.356Z,1.90
2017-10-14T01:06:30.629Z,2.40
2017-10-14T01:08:58.920Z,2.53
2017-10-14T01:11:26.509Z,2.40
2017-10-14T01:13:54.019Z,2.20
2017-10-14T01:16:21.523Z,2.00
2017-10-14T01:18:49.020Z,1.77
2017-10-14T01:21:16.713Z,2.13
2017-10-14T01:23:44.208Z,1.97
2017-10-14T01:26:11.820Z,1.80
2017-10-14T01:28:39.323Z,2.57
2017-10-14T01:31:06.847Z,2.00
2017-10-14T01:33:34.340Z,2.63
2017-10-14T01:36:01.884Z,2.50
2017-10-14T01:38:29.387Z,2.10
2017-10-14T01:40:56.948Z,1.73
2017-10-14T01:43:24.461Z,2.00
2017-10-14T01:45:51.963Z,1.60
2017-10-14T01:48:19.462Z,1.73
2017-10-14T01:50:46.967Z,1.87
2017-10-14T01:53:14.641Z,1.77
2017-10-14T01:55:42.142Z,2.30
2017-10-14T01:58:09.647Z,2.27
2017-10-14T02:00:37.215Z,2.27
2017-10-14T02:03:04.867Z,2.30
2017-10-14T02:05:32.362Z,1.70
2017-10-14T02:07:59.864Z,1.93
2017-10-14T02:10:27.375Z,2.03
2017-10-14T02:12:56.515Z,2.07
2017-10-14T02:15:24.067Z,2.00
2017-10-14T02:17:51.627Z,1.87
2017-10-14T02:20:19.127Z,2.10
2017-10-14T02:22:46.639Z,2.00
2017-10-14T02:25:14.390Z,1.90
2017-10-14T02:27:41.974Z,1.93
2017-10-14T02:30:09.639Z,2.03
2017-10-14T02:32:37.184Z,2.03
2017-10-14T02:35:04.836Z,2.30
2017-10-14T02:37:32.367Z,1.83
2017-10-14T02:39:59.939Z,2.13
2017-10-14T02:42:27.596Z,1.80
2017-10-14T02:44:55.090Z,2.20
2017-10-14T02:47:22.587Z,2.00
2017-10-14T02:49:50.863Z,1.80
2017-10-14T02:52:19.134Z,2.33
2017-10-14T02:54:47.406Z,1.70
2017-10-14T02:57:14.929Z,2.00
2017-10-14T02:59:42.669Z,1.83
2017-10-14T03:02:10.164Z,2.07
2017-10-14T03:04:37.755Z,1.50
2017-10-14T03:07:05.254Z,2.57
2017-10-14T03:09:32.764Z,1.60
2017-10-14T03:12:00.363Z,1.80
2017-10-14T03:14:27.878Z,1.87
2017-10-14T03:16:55.646Z,2.00
2017-10-14T03:19:23.138Z,1.80
2017-10-14T03:21:50.638Z,1.77
2017-10-14T03:24:18.213Z,1.80
2017-10-14T03:26:45.721Z,2.00
2017-10-14T03:29:14.020Z,1.77
2017-10-14T03:31:41.591Z,1.67
2017-10-14T03:34:09.104Z,1.70
2017-10-14T03:36:36.916Z,1.90
2017-10-14T03:39:04.583Z,1.97
2017-10-14T03:41:32.228Z,2.07
2017-10-14T03:43:59.727Z,1.77
2017-10-14T03:46:27.330Z,1.80
2017-10-14T03:48:55.772Z,1.90
2017-10-14T03:51:23.289Z,2.03
2017-10-14T03:53:50.796Z,1.67
2017-10-14T03:56:19.087Z,1.70
2017-10-14T03:58:46.650Z,2.03
2017-10-14T04:01:14.150Z,2.00
2017-10-14T04:03:41.643Z,2.13
2017-10-14T04:06:09.926Z,2.00
2017-10-14T04:08:38.199Z,1.80
2017-10-14T04:11:06.471Z,1.90
2017-10-14T04:13:34.742Z,1.80
2017-10-14T04:16:03.012Z,2.00
2017-10-14T04:18:31.406Z,2.30
2017-10-14T04:20:58.913Z,2.00
2017-10-14T04:23:26.416Z,1.60
2017-10-14T04:25:54.020Z,1.53
2017-10-14T04:28:21.523Z,1.80
2017-10-14T04:30:49.099Z,2.00
2017-10-14T04:33:16.595Z,2.00
2017-10-14T04:35:44.206Z,1.97
2017-10-14T04:38:11.699Z,1.83
2017-10-14T04:40:39.313Z,1.90
2017-10-14T04:43:06.816Z,2.17
2017-10-14T04:45:34.343Z,1.93
2017-10-14T04:48:01.930Z,1.73
2017-10-14T04:50:29.430Z,2.03
2017-10-14T04:52:57.205Z,1.43
2017-10-14T04:55:24.711Z,1.63
2017-10-14T04:57:52.329Z,1.73
2017-10-14T05:00:19.968Z,1.53
2017-10-14T05:02:47.471Z,1.60
2017-10-14T05:05:14.970Z,1.80
2017-10-14T05:07:42.483Z,1.50
2017-10-14T05:10:10.821Z,2.00
2017-10-14T05:12:38.319Z,1.70
2017-10-14T05:15:05.834Z,1.80
2017-10-14T05:17:33.386Z,1.60
2017-10-14T05:20:00.899Z,1.70
2017-10-14T05:22:29.175Z,1.83
2017-10-14T05:24:57.439Z,1.67
2017-10-14T05:27:25.245Z,1.50
2017-10-14T05:29:52.742Z,1.77
2017-10-14T05:32:20.235Z,1.87
2017-10-14T05:34:48.505Z,1.87
2017-10-14T05:37:16.875Z,1.70
2017-10-14T05:39:44.376Z,1.83
2017-10-14T05:42:12.039Z,1.30
2017-10-14T05:44:39.539Z,1.57
2017-10-14T05:47:07.802Z,1.77
2017-10-14T05:49:35.303Z,2.00
2017-10-14T05:52:02.799Z,1.87
2017-10-14T05:54:30.310Z,1.50
2017-10-14T05:56:57.815Z,1.60
2017-10-14T05:59:25.325Z,1.70
2017-10-14T06:01:52.904Z,1.70
2017-10-14T06:04:20.478Z,1.73
2017-10-14T06:06:47.975Z,1.70
2017-10-14T06:09:15.471Z,2.40
2017-10-14T06:11:42.967Z,1.80
2017-10-14T06:14:11.239Z,2.00
2017-10-14T06:16:39.498Z,1.33
2017-10-14T06:19:07.096Z,1.80
2017-10-14T06:21:34.596Z,1.70
2017-10-14T06:24:02.094Z,1.70
2017-10-14T06:26:29.655Z,1.60
2017-10-14T06:28:57.310Z,1.83
2017-10-14T06:31:24.830Z,2.10
2017-10-14T06:33:52.362Z,1.83
2017-10-14T06:36:20.012Z,2.07
2017-10-14T06:38:47.520Z,2.33
2017-10-14T06:41:15.036Z,2.33
2017-10-14T06:43:42.551Z,3.10
2017-10-14T06:46:10.059Z,2.87
2017-10-14T06:48:39.111Z,3.50
2017-10-14T06:51:06.680Z,3.80
2017-10-14T06:53:34.227Z,4.03
2017-10-14T06:56:01.786Z,3.73
2017-10-14T06:58:29.283Z,3.10
2017-10-14T07:00:56.799Z,3.30
2017-10-14T07:03:24.435Z,3.47
2017-10-14T07:05:51.963Z,3.17
2017-10-14T07:08:20.239Z,2.97
2017-10-14T07:10:48.525Z,2.97
2017-10-14T07:13:16.111Z,3.10
2017-10-14T07:15:43.636Z,2.90
2017-10-14T07:18:11.897Z,3.07
2017-10-14T07:20:40.174Z,2.87
2017-10-14T07:23:08.463Z,3.00
2017-10-14T07:25:36.050Z,3.03
2017-10-14T07:28:03.578Z,2.83
2017-10-14T07:30:31.071Z,2.63
2017-10-14T07:32:58.657Z,2.60
2017-10-14T07:35:26.933Z,2.83
2017-10-14T07:37:54.424Z,2.73
2017-10-14T07:40:21.928Z,2.93
2017-10-14T07:42:49.462Z,2.83
2017-10-14T07:45:16.997Z,3.10
2017-10-14T07:47:44.499Z,2.60
2017-10-14T07:50:12.083Z,2.47
2017-10-14T07:52:40.358Z,3.13
2017-10-14T07:55:08.645Z,2.90
2017-10-14T07:57:36.148Z,4.20
2017-10-14T08:00:03.704Z,2.90
2017-10-14T08:02:31.207Z,3.47
2017-10-14T08:04:58.835Z,3.20
2017-10-14T08:07:26.335Z,3.20
2017-10-14T08:09:53.887Z,2.83
2017-10-14T08:12:21.386Z,3.97
2017-10-14T08:14:49.007Z,2.80
2017-10-14T08:17:16.535Z,3.43
2017-10-14T08:19:44.806Z,2.43
2017-10-14T08:22:13.090Z,2.80
2017-10-14T08:24:40.650Z,3.00
2017-10-14T08:27:08.321Z,2.83
2017-10-14T08:29:35.823Z,2.80
2017-10-14T08:32:03.335Z,3.00
2017-10-14T08:34:30.849Z,3.27
2017-10-14T08:36:58.374Z,2.90
2017-10-14T08:39:25.877Z,3.47
2017-10-14T08:41:54.174Z,2.90
2017-10-14T08:44:21.718Z,2.67
2017-10-14T08:46:49.231Z,2.60
2017-10-14T08:49:16.731Z,2.83
2017-10-14T08:51:44.227Z,2.80
2017-10-14T08:54:11.751Z,3.00
2017-10-14T08:56:39.264Z,3.00
2017-10-14T08:59:06.795Z,2.80
2017-10-14T09:01:34.310Z,2.97
2017-10-14T09:04:01.835Z,3.10
2017-10-14T09:06:30.248Z,3.30
2017-10-14T09:08:57.751Z,3.40
2017-10-14T09:11:25.270Z,3.07
2017-10-14T09:13:52.839Z,2.63
2017-10-14T09:16:20.455Z,3.60
2017-10-14T09:18:47.982Z,3.33
2017-10-14T09:21:15.500Z,2.70
2017-10-14T09:23:43.060Z,3.03
2017-10-14T09:26:10.593Z,3.10
2017-10-14T09:28:38.123Z,2.77
2017-10-14T09:31:05.626Z,2.80
2017-10-14T09:33:33.139Z,2.33
2017-10-14T09:36:01.403Z,2.60
2017-10-14T09:38:29.687Z,2.80
2017-10-14T09:40:57.954Z,2.47
2017-10-14T09:43:26.367Z,2.57
2017-10-14T09:45:53.864Z,2.57
2017-10-14T09:48:21.466Z,2.90
2017-10-14T09:50:48.967Z,2.80
2017-10-14T09:53:16.504Z,2.53
2017-10-14T09:55:44.040Z,2.60
2017-10-14T09:58:11.539Z,2.40
2017-10-14T10:00:39.038Z,2.77
2017-10-14T10:03:07.185Z,2.40
2017-10-14T10:05:34.860Z,2.70
2017-10-14T10:08:02.375Z,2.47
2017-10-14T10:10:29.912Z,2.50
2017-10-14T10:12:57.421Z,2.80
2017-10-14T10:15:24.947Z,2.50
2017-10-14T10:17:52.556Z,2.90
2017-10-14T10:20:20.071Z,2.70
2017-10-14T10:22:48.351Z,3.00
2017-10-14T10:25:16.639Z,2.90
2017-10-14T10:27:44.126Z,2.80
2017-10-14T10:30:11.639Z,2.50
2017-10-14T10:32:39.171Z,2.93
2017-10-14T10:35:06.674Z,2.83
2017-10-14T10:37:34.260Z,2.70
2017-10-14T10:40:01.774Z,2.80
2017-10-14T10:42:29.303Z,2.70
2017-10-14T10:44:56.802Z,3.03
2017-10-14T10:47:25.266Z,2.60
2017-10-14T10:49:52.771Z,2.40
2017-10-14T10:52:20.263Z,2.50
2017-10-14T10:54:48.526Z,2.50
2017-10-14T10:57:17.158Z,2.50
2017-10-14T10:59:44.659Z,2.57
2017-10-14T11:02:13.054Z,2.77
2017-10-14T11:04:40.723Z,2.33
2017-10-14T11:07:08.235Z,3.17
2017-10-14T11:09:35.763Z,2.60
2017-10-14T11:12:03.307Z,2.67
2017-10-14T11:14:30.954Z,2.90
2017-10-14T11:16:58.446Z,2.70
2017-10-14T11:19:25.974Z,2.93
2017-10-14T11:21:53.715Z,2.70
2017-10-14T11:24:21.223Z,2.73
2017-10-14T11:26:48.715Z,2.70
2017-10-14T11:29:16.975Z,2.93
2017-10-14T11:31:45.236Z,3.20
2017-10-14T11:34:12.830Z,2.83
2017-10-14T11:36:40.358Z,2.30
2017-10-14T11:39:08.630Z,2.60
2017-10-14T11:41:36.919Z,2.70
2017-10-14T11:44:05.187Z,2.70
2017-10-14T11:46:33.472Z,2.53
2017-10-14T11:49:01.134Z,2.40
2017-10-14T11:51:28.675Z,2.13
2017-10-14T11:53:56.195Z,3.27
2017-10-14T11:56:23.691Z,2.33
2017-10-14T11:58:51.196Z,2.20
2017-10-14T12:01:18.729Z,2.20
2017-10-14T12:03:46.247Z,2.43
2017-10-14T12:06:14.515Z,2.80
2017-10-14T12:08:42.794Z,2.67
2017-10-14T12:11:11.076Z,2.87
2017-10-14T12:13:38.689Z,2.60
2017-10-14T12:16:06.190Z,2.40
2017-10-14T12:18:34.476Z,2.57
2017-10-14T12:21:01.981Z,2.90
2017-10-14T12:23:31.011Z,2.33
2017-10-14T12:25:58.784Z,2.93
2017-10-14T12:28:26.302Z,3.00
2017-10-14T12:30:53.907Z,2.93
2017-10-14T12:33:21.432Z,3.00
2017-10-14T12:35:49.703Z,2.20
2017-10-14T12:38:17.988Z,2.13
2017-10-14T12:40:45.574Z,2.60
2017-10-14T12:43:13.099Z,2.20
2017-10-14T12:45:40.591Z,2.20
2017-10-14T12:48:08.128Z,2.50
2017-10-14T12:50:35.630Z,2.30
2017-10-14T12:53:03.155Z,2.50
2017-10-14T12:55:30.715Z,2.60
2017-10-14T12:57:58.244Z,2.77
2017-10-14T13:00:25.744Z,2.60
2017-10-14T13:02:53.263Z,2.70
2017-10-14T13:05:20.819Z,2.70
2017-10-14T13:07:48.376Z,2.73
2017-10-14T13:10:15.884Z,2.50
2017-10-14T13:12:44.317Z,2.80
2017-10-14T13:15:11.963Z,2.50
2017-10-14T13:17:39.475Z,2.50
2017-10-14T13:20:07.094Z,2.80
2017-10-14T13:22:34.599Z,2.20
2017-10-14T13:25:02.862Z,2.43
2017-10-14T13:27:30.364Z,2.87
2017-10-14T13:29:57.891Z,2.50
2017-10-14T13:32:25.405Z,2.50
2017-10-14T13:34:52.931Z,2.50
2017-10-14T13:37:20.494Z,2.63
2017-10-14T13:39:48.020Z,2.73
2017-10-14T13:42:15.611Z,2.50
2017-10-14T13:44:43.152Z,3.13
2017-10-14T13:47:10.657Z,2.50
2017-10-14T13:49:38.354Z,2.83
2017-10-14T13:52:05.855Z,3.20
2017-10-14T13:54:33.380Z,2.30
2017-10-14T13:57:00.963Z,4.30
2017-10-14T13:59:28.503Z,5.13
2017-10-14T14:01:56.235Z,3.73
2017-10-14T14:04:23.896Z,2.90
2017-10-14T14:06:53.062Z,2.60
2017-10-14T14:09:20.578Z,2.77
2017-10-14T14:11:48.083Z,3.37
2017-10-14T14:14:15.603Z,3.10
2017-10-14T14:16:43.218Z,2.97
2017-10-14T14:19:10.843Z,3.37
2017-10-14T14:21:38.347Z,3.63
2017-10-14T14:24:05.863Z,3.60
2017-10-14T14:26:34.147Z,3.00
2017-10-14T14:29:01.867Z,3.20
2017-10-14T14:31:29.404Z,2.90
2017-10-14T14:33:56.950Z,2.90
2017-10-14T14:36:24.479Z,4.20
2017-10-14T14:38:51.998Z,3.10
2017-10-14T14:41:20.255Z,3.23
2017-10-14T14:43:47.771Z,2.37
2017-10-14T14:46:15.274Z,2.83
2017-10-14T14:48:42.992Z,3.00
2017-10-14T14:51:11.067Z,2.47
2017-10-14T14:53:38.595Z,2.63
2017-10-14T14:56:06.869Z,2.30
2017-10-14T14:58:34.398Z,2.70
2017-10-14T15:01:01.915Z,2.90
2017-10-14T15:03:29.439Z,2.70
2017-10-14T15:05:56.947Z,2.53
2017-10-14T15:08:24.672Z,2.37
2017-10-14T15:10:52.188Z,2.07
2017-10-14T15:13:20.501Z,2.73
2017-10-14T15:15:47.995Z,2.63
2017-10-14T15:18:15.526Z,3.10
2017-10-14T15:20:43.038Z,2.50
2017-10-14T15:23:11.313Z,2.57
2017-10-14T15:25:39.593Z,2.80
2017-10-14T15:28:07.875Z,2.80
2017-10-14T15:30:35.462Z,2.73
2017-10-14T15:33:02.963Z,2.43
2017-10-14T15:35:31.226Z,2.60
2017-10-14T15:37:58.733Z,2.50
2017-10-14T15:40:26.246Z,3.07
2017-10-14T15:42:54.046Z,3.50
2017-10-14T15:45:21.567Z,2.97
2017-10-14T15:47:49.067Z,3.10
2017-10-14T15:50:16.650Z,2.20
2017-10-14T15:52:44.195Z,2.60
2017-10-14T15:55:11.706Z,3.20
2017-10-14T15:57:39.474Z,2.63
2017-10-14T16:00:07.003Z,3.20
2017-10-14T16:02:35.275Z,3.23
2017-10-14T16:05:03.683Z,3.63
2017-10-14T16:07:31.338Z,2.90
2017-10-14T16:09:58.866Z,2.97
2017-10-14T16:12:27.126Z,2.93
2017-10-14T16:14:55.427Z,2.80
2017-10-14T16:17:23.699Z,2.80
2017-10-14T16:19:52.093Z,2.73
2017-10-14T16:22:19.754Z,2.40
2017-10-14T16:24:47.271Z,3.10
2017-10-14T16:27:14.763Z,2.90
2017-10-14T16:29:42.279Z,2.53
2017-10-14T16:32:09.800Z,2.70
2017-10-14T16:34:37.340Z,2.73
2017-10-14T16:37:04.853Z,2.50
2017-10-14T16:39:32.555Z,2.67
2017-10-14T16:42:00.195Z,2.90
2017-10-14T16:44:27.856Z,2.20
2017-10-14T16:46:55.515Z,3.10
2017-10-14T16:49:23.031Z,2.43
2017-10-14T16:51:50.535Z,3.00
2017-10-14T16:54:18.126Z,3.00
2017-10-14T16:56:45.622Z,2.60
2017-10-14T16:59:13.913Z,2.53
2017-10-14T17:01:41.677Z,2.87
2017-10-14T17:04:09.181Z,3.03
2017-10-14T17:06:36.779Z,2.20
2017-10-14T17:09:04.286Z,2.93
2017-10-14T17:11:31.783Z,2.70
2017-10-14T17:14:00.106Z,3.00
2017-10-14T17:16:27.827Z,2.40
2017-10-14T17:18:55.327Z,2.57
2017-10-14T17:21:22.838Z,3.17
2017-10-14T17:23:50.433Z,2.67
2017-10-14T17:26:17.927Z,4.00
2017-10-14T17:28:46.330Z,5.87
2017-10-14T17:31:13.839Z,13.87
2017-10-14T17:33:41.356Z,17.10
2017-10-14T17:36:08.932Z,23.53
2017-10-14T17:38:36.438Z,28.00
2017-10-14T17:41:04.107Z,67.73
2017-10-14T17:43:31.625Z,117.03
2017-10-14T17:45:59.260Z,146.40
2017-10-14T17:48:26.783Z,188.33
2017-10-14T17:50:54.318Z,204.37
2017-10-14T17:53:22.590Z,189.40
2017-10-14T17:55:51.003Z,202.30
2017-10-14T17:58:18.658Z,201.00
2017-10-14T18:00:46.194Z,200.80
2017-10-14T18:03:13.715Z,204.67
2017-10-14T18:05:41.415Z,197.27
2017-10-14T18:08:08.931Z,198.83
2017-10-14T18:10:36.462Z,187.20
2017-10-14T18:13:03.975Z,192.53
2017-10-14T18:15:31.508Z,185.47
2017-10-14T18:17:59.787Z,180.00
2017-10-14T18:20:27.321Z,179.70
2017-10-14T18:22:54.847Z,175.30
2017-10-14T18:25:22.387Z,183.63
2017-10-14T18:27:49.931Z,170.40
2017-10-14T18:30:17.455Z,163.50
2017-10-14T18:32:44.965Z,168.40
2017-10-14T18:35:12.576Z,161.03
2017-10-14T18:37:40.859Z,155.67
2017-10-14T18:40:09.250Z,155.70
2017-10-14T18:42:36.917Z,153.33
2017-10-14T18:45:04.576Z,146.70
2017-10-14T18:47:32.079Z,146.53
2017-10-14T18:49:59.617Z,149.10
2017-10-14T18:52:27.176Z,148.13
2017-10-14T18:54:54.816Z,142.07
2017-10-14T18:57:22.334Z,133.87
2017-10-14T18:59:50.620Z,135.63
2017-10-14T19:02:18.203Z,131.03
2017-10-14T19:04:45.846Z,128.73
2017-10-14T19:07:13.353Z,125.60
2017-10-14T19:09:40.960Z,124.47
2017-10-14T19:12:08.487Z,122.77
2017-10-14T19:14:36.764Z,119.17
2017-10-14T19:17:04.561Z,120.00
2017-10-14T19:19:32.077Z,118.13
2017-10-14T19:22:00.388Z,118.63
2017-10-14T19:24:27.909Z,113.87
2017-10-14T19:26:55.420Z,114.10
2017-10-14T19:29:22.929Z,108.37
2017-10-14T19:31:50.447Z,108.27
2017-10-14T19:34:18.163Z,107.57
2017-10-14T19:36:45.675Z,107.90
2017-10-14T19:39:13.179Z,111.07
2017-10-14T19:41:40.707Z,108.93
2017-10-14T19:44:08.231Z,103.33
2017-10-14T19:46:35.840Z,99.67
2017-10-14T19:49:03.343Z,98.00
2017-10-14T19:51:30.931Z,100.63
2017-10-14T19:53:58.457Z,97.97
2017-10-14T19:56:25.991Z,93.10
2017-10-14T19:58:53.502Z,91.40
2017-10-14T20:01:21.034Z,91.77
2017-10-14T20:03:49.359Z,92.97
2017-10-14T20:06:16.947Z,90.13
2017-10-14T20:08:44.463Z,84.13
2017-10-14T20:11:12.024Z,88.57
2017-10-14T20:13:39.687Z,81.90
2017-10-14T20:16:07.339Z,79.53
2017-10-14T20:18:34.842Z,79.80
2017-10-14T20:21:02.367Z,79.30
2017-10-14T20:23:29.919Z,78.00
2017-10-14T20:25:57.560Z,72.53
2017-10-14T20:28:25.071Z,77.67
2017-10-14T20:30:52.604Z,72.30
2017-10-14T20:33:20.333Z,68.53
2017-10-14T20:35:47.863Z,71.73
2017-10-14T20:38:16.142Z,69.90
2017-10-14T20:40:43.683Z,68.53
2017-10-14T20:43:11.366Z,70.60
2017-10-14T20:45:38.909Z,67.00
2017-10-14T20:48:07.182Z,66.17
2017-10-14T20:50:34.754Z,65.37
2017-10-14T20:53:02.272Z,66.73
2017-10-14T20:55:29.807Z,66.33
2017-10-14T20:57:57.318Z,61.50
2017-10-14T21:00:24.823Z,60.00
2017-10-14T21:02:52.334Z,61.50
2017-10-14T21:05:19.879Z,58.60
2017-10-14T21:07:47.387Z,59.77
2017-10-14T21:10:14.891Z,58.97
2017-10-14T21:12:42.411Z,57.63
2017-10-14T21:15:09.947Z,57.10
2017-10-14T21:17:37.455Z,57.40
2017-10-14T21:20:05.220Z,59.70
2017-10-14T21:22:32.883Z,55.20
2017-10-14T21:25:00.439Z,53.90
2017-10-14T21:27:27.946Z,54.90
2017-10-14T21:29:55.462Z,52.20
2017-10-14T21:32:23.122Z,52.40
2017-10-14T21:34:50.628Z,52.10
2017-10-14T21:37:18.142Z,50.17
2017-10-14T21:39:45.898Z,50.07
2017-10-14T21:42:13.404Z,49.27
2017-10-14T21:44:41.679Z,51.47
2017-10-14T21:47:10.090Z,47.90
2017-10-14T21:49:37.599Z,47.90
2017-10-14T21:52:05.411Z,44.37
2017-10-14T21:54:32.911Z,46.20
2017-10-14T21:57:00.418Z,46.03
2017-10-14T21:59:27.979Z,45.67
2017-10-14T22:01:55.640Z,44.90
2017-10-14T22:04:23.140Z,43.67
2017-10-14T22:06:50.669Z,43.03
2017-10-14T22:09:18.177Z,43.60
2017-10-14T22:11:45.736Z,41.33
2017-10-14T22:14:13.263Z,42.00
2017-10-14T22:16:40.803Z,41.97
2017-10-14T22:19:08.310Z,40.73
2017-10-14T22:21:35.847Z,42.37
2017-10-14T22:24:03.531Z,39.30
2017-10-14T22:26:31.063Z,39.93
2017-10-14T22:28:58.567Z,38.37
2017-10-14T22:31:26.114Z,37.43
2017-10-14T22:33:53.644Z,37.03
2017-10-14T22:36:21.250Z,39.10
2017-10-14T22:38:48.759Z,34.13
2017-10-14T22:41:16.296Z,35.23
2017-10-14T22:43:43.805Z,36.37
2017-10-14T22:46:11.338Z,36.67
2017-10-14T22:48:38.925Z,34.90
2017-10-14T22:51:06.441Z,34.67
2017-10-14T22:53:33.951Z,33.20
2017-10-14T22:56:01.471Z,33.90
2017-10-14T22:58:28.972Z,34.80
2017-10-14T23:00:56.486Z,32.37
2017-10-14T23:03:23.993Z,32.00
2017-10-14T23:05:51.509Z,32.60
2017-10-14T23:08:19.007Z,32.57
2017-10-14T23:10:47.279Z,30.87
2017-10-14T23:13:15.555Z,34.07
2017-10-14T23:15:43.822Z,30.57
2017-10-14T23:18:12.095Z,30.70
2017-10-14T23:20:40.358Z,29.70
2017-10-14T23:23:07.983Z,31.43
2017-10-14T23:25:35.494Z,30.13
2017-10-14T23:28:03.087Z,30.00
2017-10-14T23:30:30.608Z,29.60
2017-10-14T23:32:58.884Z,27.57
2017-10-14T23:35:26.669Z,27.00
2017-10-14T23:37:54.183Z,27.80
2017-10-14T23:40:22.454Z,26.53
2017-10-14T23:42:50.735Z,25.53
2017-10-14T23:45:19.009Z,26.20
2017-10-14T23:47:46.510Z,25.37
2017-10-14T23:50:14.018Z,26.53
2017-10-14T23:52:41.729Z,24.60
2017-10-14T23:55:09.243Z,24.70
2017-10-14T23:57:37.519Z,26.40
